RJSM(METAR)
10/20 06:00
METAR RJSM 192100Z 27002KT 9999 FEW008 BKN035 07/05 Q1021 RMK 1ST008
7CU035 A3018 1ST008 NW 15/05=
戻る
トップページへ戻る
IMOC Co,.Ltd.